createdAt,value
2019-02-20T00:02:10.936Z,10.67
2019-02-20T00:04:39.677Z,14.80
2019-02-20T00:07:08.414Z,11.95
2019-02-20T00:09:37.146Z,12.00
2019-02-20T00:12:05.889Z,13.80
2019-02-20T00:14:34.707Z,13.20
2019-02-20T00:17:03.464Z,14.27
2019-02-20T00:19:32.194Z,11.93
2019-02-20T00:22:00.957Z,11.67
2019-02-20T00:24:29.709Z,12.23
2019-02-20T00:26:58.573Z,10.30
2019-02-20T00:29:27.286Z,12.33
2019-02-20T00:31:56.036Z,10.20
2019-02-20T00:34:24.797Z,10.93
2019-02-20T00:36:53.538Z,11.73
2019-02-20T00:39:22.284Z,9.90
2019-02-20T00:41:51.041Z,10.80
2019-02-20T00:44:48.144Z,12.87
2019-02-20T00:47:27.940Z,11.53
2019-02-20T00:49:56.692Z,11.43
2019-02-20T00:52:49.580Z,7.13
2019-02-20T00:55:14.032Z,9.57
2019-02-20T00:57:42.780Z,10.03
2019-02-20T01:00:12.573Z,14.13
2019-02-20T01:02:41.417Z,10.55
2019-02-20T01:05:10.355Z,15.20
2019-02-20T01:07:39.116Z,12.30
2019-02-20T01:10:08.588Z,14.03
2019-02-20T01:12:37.337Z,14.27
2019-02-20T01:15:06.825Z,12.65
2019-02-20T01:17:35.584Z,12.77
2019-02-20T01:20:05.022Z,16.93
2019-02-20T01:22:33.760Z,12.93
2019-02-20T01:25:02.568Z,15.10
2019-02-20T01:27:31.309Z,16.37
2019-02-20T01:30:00.298Z,11.17
2019-02-20T01:32:29.847Z,11.27
2019-02-20T01:34:58.629Z,13.33
2019-02-20T01:37:27.373Z,12.17
2019-02-20T01:39:56.121Z,9.90
2019-02-20T01:42:24.838Z,9.70
2019-02-20T01:44:53.575Z,13.97
2019-02-20T01:47:22.388Z,8.57
2019-02-20T01:49:51.122Z,9.43
2019-02-20T01:52:19.849Z,10.93
2019-02-20T01:54:48.611Z,10.30
2019-02-20T01:57:17.346Z,12.00
2019-02-20T01:59:46.074Z,12.03
2019-02-20T02:02:14.822Z,13.23
2019-02-20T02:04:43.571Z,13.20
2019-02-20T02:07:12.317Z,11.13
2019-02-20T02:09:41.136Z,11.90
2019-02-20T02:12:09.979Z,16.03
2019-02-20T02:14:38.717Z,11.38
2019-02-20T02:17:07.451Z,11.97
2019-02-20T02:19:37.338Z,15.98
2019-02-20T02:22:06.146Z,10.70
2019-02-20T02:24:34.879Z,18.77
2019-02-20T02:27:03.788Z,11.97
2019-02-20T02:29:32.630Z,15.37
2019-02-20T02:32:01.529Z,15.67
2019-02-20T02:34:30.406Z,12.65
2019-02-20T02:36:59.131Z,13.67
2019-02-20T02:39:27.894Z,13.73
2019-02-20T02:41:58.396Z,12.35
2019-02-20T02:44:27.134Z,17.80
2019-02-20T02:46:55.881Z,17.03
2019-02-20T02:49:24.639Z,15.60
2019-02-20T02:51:53.363Z,13.83
2019-02-20T02:54:22.117Z,14.73
2019-02-20T02:56:50.931Z,14.03
2019-02-20T02:59:19.669Z,13.40
2019-02-20T03:01:48.503Z,11.87
2019-02-20T03:04:17.249Z,14.57
2019-02-20T03:06:45.996Z,18.37
2019-02-20T03:09:14.721Z,14.77
2019-02-20T03:11:43.484Z,12.83
2019-02-20T03:14:12.206Z,18.32
2019-02-20T03:16:40.976Z,11.03
2019-02-20T03:19:09.780Z,16.30
2019-02-20T03:21:38.524Z,13.80
2019-02-20T03:24:07.280Z,14.87
2019-02-20T03:26:36.055Z,15.17
2019-02-20T03:29:04.956Z,16.97
2019-02-20T03:31:33.722Z,13.47
2019-02-20T03:34:02.930Z,15.80
2019-02-20T03:36:31.948Z,14.80
2019-02-20T03:39:00.733Z,13.55
2019-02-20T03:41:29.516Z,10.90
2019-02-20T03:43:58.260Z,16.23
2019-02-20T03:46:27.007Z,19.57
2019-02-20T03:48:55.735Z,12.35
2019-02-20T03:51:24.487Z,17.40
2019-02-20T03:53:54.459Z,17.07
2019-02-20T03:56:23.357Z,20.03
2019-02-20T03:58:52.153Z,16.97
2019-02-20T04:01:20.987Z,17.83
2019-02-20T04:03:49.724Z,17.23
2019-02-20T04:06:18.469Z,22.20
2019-02-20T04:08:47.217Z,13.63
2019-02-20T04:11:15.957Z,17.67
2019-02-20T04:13:44.723Z,19.30
2019-02-20T04:16:14.384Z,18.43
2019-02-20T04:18:43.163Z,17.40
2019-02-20T04:21:11.911Z,16.93
2019-02-20T04:23:40.662Z,14.43
2019-02-20T04:26:09.998Z,16.33
2019-02-20T04:28:39.020Z,16.73
2019-02-20T04:31:07.762Z,13.57
2019-02-20T04:33:36.494Z,15.77
2019-02-20T04:36:05.338Z,19.35
2019-02-20T04:38:34.248Z,15.00
2019-02-20T04:41:02.982Z,18.83
2019-02-20T04:43:33.313Z,19.02
2019-02-20T04:46:02.057Z,13.90
2019-02-20T04:48:30.802Z,15.90
2019-02-20T04:50:59.607Z,14.13
2019-02-20T04:53:28.341Z,15.73
2019-02-20T04:55:57.202Z,14.90
2019-02-20T04:58:26.014Z,17.27
2019-02-20T05:00:54.824Z,16.53
2019-02-20T05:03:23.580Z,20.87
2019-02-20T05:05:53.135Z,18.33
2019-02-20T05:08:21.885Z,17.20
2019-02-20T05:10:50.693Z,13.73
2019-02-20T05:13:19.426Z,23.90
2019-02-20T05:15:48.150Z,15.60
2019-02-20T05:18:16.903Z,22.93
2019-02-20T05:20:45.626Z,17.17
2019-02-20T05:23:14.445Z,15.83
2019-02-20T05:25:43.226Z,12.60
2019-02-20T05:28:11.957Z,16.90
2019-02-20T05:30:41.097Z,19.03
2019-02-20T05:33:10.419Z,17.00
2019-02-20T05:35:39.170Z,23.83
2019-02-20T05:38:07.898Z,19.07
2019-02-20T05:40:36.661Z,19.30
2019-02-20T05:43:05.408Z,21.63
2019-02-20T05:45:34.158Z,16.37
2019-02-20T05:48:02.995Z,17.43
2019-02-20T05:50:31.738Z,17.35
2019-02-20T05:53:00.474Z,22.37
2019-02-20T05:55:29.350Z,28.53
2019-02-20T05:57:58.088Z,19.37
2019-02-20T06:00:26.875Z,19.87
2019-02-20T06:02:55.670Z,18.50
2019-02-20T06:05:24.432Z,15.60
2019-02-20T06:07:53.177Z,16.95
2019-02-20T06:10:21.976Z,17.07
2019-02-20T06:12:50.993Z,20.53
2019-02-20T06:15:19.748Z,22.97
2019-02-20T06:17:48.486Z,19.87
2019-02-20T06:20:17.238Z,21.75
2019-02-20T06:22:45.980Z,23.63
2019-02-20T06:25:14.762Z,22.67
2019-02-20T06:27:43.523Z,21.03
2019-02-20T06:30:12.529Z,20.73
2019-02-20T06:32:41.277Z,21.95
2019-02-20T06:35:10.115Z,26.87
2019-02-20T06:37:38.897Z,20.17
2019-02-20T06:40:08.561Z,21.97
2019-02-20T06:42:37.404Z,22.25
2019-02-20T06:45:06.612Z,28.13
2019-02-20T06:47:35.352Z,22.47
2019-02-20T06:50:04.592Z,24.63
2019-02-20T06:52:33.349Z,23.87
2019-02-20T06:55:02.173Z,25.80
2019-02-20T06:57:30.902Z,25.00
2019-02-20T06:59:59.656Z,23.70
2019-02-20T07:02:28.408Z,18.03
2019-02-20T07:05:35.298Z,20.27
2019-02-20T07:08:44.440Z,21.00
2019-02-20T07:11:25.141Z,19.80
2019-02-20T07:14:01.300Z,39.87
2019-02-20T07:17:12.576Z,27.70
2019-02-20T07:19:59.696Z,21.93
2019-02-20T07:23:03.915Z,21.10
2019-02-20T07:25:46.844Z,17.17
2019-02-20T07:28:32.521Z,27.00
2019-02-20T07:31:01.313Z,17.67
2019-02-20T07:33:30.146Z,26.37
2019-02-20T07:35:58.905Z,31.03
2019-02-20T07:38:27.640Z,25.33
2019-02-20T07:40:56.392Z,29.47
2019-02-20T07:43:25.137Z,21.17
2019-02-20T07:45:53.879Z,20.40
2019-02-20T07:48:22.618Z,13.37
2019-02-20T07:50:51.373Z,12.73
2019-02-20T07:53:20.141Z,14.40
2019-02-20T07:55:48.888Z,10.77
2019-02-20T07:58:17.641Z,15.30
2019-02-20T08:00:46.389Z,12.50
2019-02-20T08:03:15.150Z,13.90
2019-02-20T08:05:43.884Z,12.97
2019-02-20T08:08:14.306Z,16.15
2019-02-20T08:10:43.499Z,14.17
2019-02-20T08:13:12.250Z,11.47
2019-02-20T08:15:40.984Z,13.07
2019-02-20T08:18:09.789Z,12.00
2019-02-20T08:20:38.543Z,10.10
2019-02-20T08:23:07.290Z,12.17
2019-02-20T08:25:36.021Z,10.85
2019-02-20T08:28:04.847Z,8.30
2019-02-20T08:30:33.691Z,11.23
2019-02-20T08:33:02.446Z,8.50
2019-02-20T08:35:31.193Z,10.10
2019-02-20T08:37:59.939Z,10.67
2019-02-20T08:40:28.705Z,10.47
2019-02-20T08:42:57.449Z,9.67
2019-02-20T08:45:26.277Z,12.10
2019-02-20T08:47:55.028Z,10.90
2019-02-20T08:50:23.770Z,10.87
2019-02-20T08:52:52.535Z,12.17
2019-02-20T08:55:21.321Z,10.18
2019-02-20T08:57:50.086Z,13.53
2019-02-20T09:00:20.968Z,11.67
2019-02-20T09:02:49.478Z,9.67
2019-02-20T09:05:18.230Z,11.67
2019-02-20T09:07:47.007Z,10.70
2019-02-20T09:10:17.372Z,11.45
2019-02-20T09:12:46.450Z,12.17
2019-02-20T09:15:15.360Z,14.78
2019-02-20T09:17:44.118Z,12.13
2019-02-20T09:20:12.974Z,12.27
2019-02-20T09:22:41.733Z,12.30
2019-02-20T09:25:19.170Z,10.63
2019-02-20T09:27:41.251Z,11.40
2019-02-20T09:30:12.319Z,11.70
2019-02-20T09:32:41.156Z,11.10
2019-02-20T09:35:10.278Z,10.40
2019-02-20T09:37:39.022Z,11.45
2019-02-20T09:40:10.319Z,12.50
2019-02-20T09:42:40.596Z,10.15
2019-02-20T09:45:10.778Z,11.73
2019-02-20T09:47:39.506Z,12.10
2019-02-20T09:50:08.687Z,10.27
2019-02-20T09:52:37.442Z,11.67
2019-02-20T09:55:06.853Z,14.33
2019-02-20T09:57:35.609Z,13.27
2019-02-20T10:00:05.824Z,15.67
2019-02-20T10:02:34.600Z,11.80
2019-02-20T10:05:03.353Z,11.17
2019-02-20T10:07:32.092Z,13.20
2019-02-20T10:10:00.852Z,15.55
2019-02-20T10:12:29.600Z,12.80
2019-02-20T10:14:58.364Z,14.85
2019-02-20T10:17:27.115Z,11.13
2019-02-20T10:19:55.846Z,12.40
2019-02-20T10:22:24.596Z,15.90
2019-02-20T10:24:53.353Z,14.53
2019-02-20T10:27:22.193Z,14.33
2019-02-20T10:29:51.000Z,14.53
2019-02-20T10:32:19.747Z,15.53
2019-02-20T10:34:48.512Z,13.53
2019-02-20T10:37:17.253Z,15.30
2019-02-20T10:39:46.022Z,17.87
2019-02-20T10:42:14.773Z,15.98
2019-02-20T10:44:43.512Z,16.10
2019-02-20T10:47:12.265Z,15.93
2019-02-20T10:49:41.004Z,14.73
2019-02-20T10:52:09.767Z,15.67
2019-02-20T10:54:38.546Z,20.52
2019-02-20T10:57:07.357Z,15.87
2019-02-20T10:59:36.126Z,15.25
2019-02-20T11:02:05.329Z,16.23
2019-02-20T11:04:34.234Z,17.37
2019-02-20T11:07:03.142Z,14.10
2019-02-20T11:09:31.982Z,15.20
2019-02-20T11:12:00.906Z,16.20
2019-02-20T11:14:29.660Z,16.27
2019-02-20T11:16:58.418Z,17.93
2019-02-20T11:19:27.161Z,15.87
2019-02-20T11:21:56.000Z,18.25
2019-02-20T11:24:24.747Z,13.43
2019-02-20T11:26:55.255Z,14.10
2019-02-20T11:29:23.978Z,17.67
2019-02-20T11:31:54.249Z,16.67
2019-02-20T11:34:22.988Z,18.30
2019-02-20T11:36:51.754Z,16.60
2019-02-20T11:39:20.529Z,16.27
2019-02-20T11:41:49.272Z,17.03
2019-02-20T11:44:20.997Z,15.35
2019-02-20T11:46:48.561Z,16.27
2019-02-20T11:49:17.324Z,19.12
2019-02-20T11:51:46.073Z,17.63
2019-02-20T11:54:15.015Z,15.27
2019-02-20T11:56:43.762Z,16.73
2019-02-20T11:59:12.520Z,18.10
2019-02-20T12:01:41.322Z,19.27
2019-02-20T12:04:10.096Z,15.93
2019-02-20T12:06:38.857Z,15.85
2019-02-20T12:09:07.873Z,16.47
2019-02-20T12:11:36.772Z,18.07
2019-02-20T12:14:05.524Z,16.77
2019-02-20T12:16:34.277Z,15.87
2019-02-20T12:19:03.120Z,17.53
2019-02-20T12:21:31.866Z,16.40
2019-02-20T12:24:00.626Z,15.53
2019-02-20T12:26:34.837Z,16.17
2019-02-20T12:28:59.891Z,15.23
2019-02-20T12:31:28.707Z,17.20
2019-02-20T12:33:57.494Z,16.82
2019-02-20T12:36:26.245Z,15.57
2019-02-20T12:38:55.041Z,15.25
2019-02-20T12:41:23.830Z,15.80
2019-02-20T12:43:52.645Z,16.80
2019-02-20T12:46:21.490Z,13.30
2019-02-20T12:48:50.343Z,15.07
2019-02-20T12:51:19.088Z,16.60
2019-02-20T12:53:47.845Z,14.80
2019-02-20T12:56:16.669Z,15.63
2019-02-20T12:58:45.416Z,13.63
2019-02-20T13:01:14.246Z,15.98
2019-02-20T13:03:43.002Z,15.23
2019-02-20T13:06:11.741Z,16.27
2019-02-20T13:08:40.582Z,15.10
2019-02-20T13:11:09.534Z,13.38
2019-02-20T13:13:43.440Z,15.27
2019-02-20T13:16:12.011Z,14.97
2019-02-20T13:18:40.751Z,14.87
2019-02-20T13:21:11.001Z,13.03
2019-02-20T13:23:40.022Z,15.53
2019-02-20T13:26:08.941Z,13.37
2019-02-20T13:28:37.701Z,12.65
2019-02-20T13:31:06.473Z,14.10
2019-02-20T13:33:35.701Z,11.27
2019-02-20T13:36:05.512Z,14.23
2019-02-20T13:38:35.366Z,14.47
2019-02-20T13:41:04.292Z,14.80
2019-02-20T13:43:33.041Z,11.77
2019-02-20T13:46:01.900Z,12.07
2019-02-20T13:48:30.674Z,12.40
2019-02-20T13:50:59.551Z,13.43
2019-02-20T13:53:28.365Z,15.70
2019-02-20T13:55:57.204Z,13.88
2019-02-20T13:58:26.472Z,13.33
2019-02-20T14:00:55.293Z,12.87
2019-02-20T14:03:24.126Z,12.33
2019-02-20T14:05:52.883Z,11.87
2019-02-20T14:08:21.788Z,11.40
2019-02-20T14:10:50.615Z,10.93
2019-02-20T14:13:26.641Z,13.57
2019-02-20T14:15:55.398Z,13.87
2019-02-20T14:18:24.133Z,12.35
2019-02-20T14:20:52.951Z,12.63
2019-02-20T14:23:21.693Z,11.95
2019-02-20T14:25:50.509Z,10.87
2019-02-20T14:28:19.252Z,12.33
2019-02-20T14:30:48.174Z,10.47
2019-02-20T14:33:16.937Z,13.37
2019-02-20T14:35:46.838Z,12.23
2019-02-20T14:38:15.605Z,11.57
2019-02-20T14:40:44.352Z,13.43
2019-02-20T14:43:13.103Z,12.93
2019-02-20T14:45:42.415Z,12.50
2019-02-20T14:48:11.164Z,11.53
2019-02-20T14:50:40.491Z,10.30
2019-02-20T14:53:09.254Z,10.43
2019-02-20T14:55:38.025Z,12.40
2019-02-20T14:58:06.844Z,11.57
2019-02-20T15:00:35.958Z,11.93
2019-02-20T15:03:05.020Z,10.67
2019-02-20T15:05:33.785Z,11.73
2019-02-20T15:08:02.642Z,11.20
2019-02-20T15:10:34.290Z,13.10
2019-02-20T15:13:03.149Z,9.33
2019-02-20T15:15:32.326Z,13.03
2019-02-20T15:18:07.979Z,12.47
2019-02-20T15:20:36.874Z,10.43
2019-02-20T15:23:05.632Z,10.32
2019-02-20T15:25:34.393Z,9.03
2019-02-20T15:28:04.739Z,10.30
2019-02-20T15:30:33.698Z,11.17
2019-02-20T15:33:02.853Z,11.47
2019-02-20T15:35:31.625Z,18.97
2019-02-20T15:38:00.529Z,20.37
2019-02-20T15:40:29.998Z,12.33
2019-02-20T15:43:01.633Z,9.73
2019-02-20T15:45:30.614Z,8.73
2019-02-20T15:47:59.646Z,10.50
2019-02-20T15:50:28.449Z,12.10
2019-02-20T15:52:57.282Z,8.93
2019-02-20T15:55:27.218Z,12.10
2019-02-20T15:57:56.088Z,10.63
2019-02-20T16:00:26.091Z,14.00
2019-02-20T16:02:55.318Z,10.27
2019-02-20T16:05:24.373Z,10.97
2019-02-20T16:07:53.539Z,9.90
2019-02-20T16:10:22.724Z,15.07
2019-02-20T16:12:53.106Z,15.43
2019-02-20T16:15:22.059Z,12.00
2019-02-20T16:17:50.841Z,12.20
2019-02-20T16:20:19.758Z,10.63
2019-02-20T16:22:48.598Z,19.53
2019-02-20T16:25:17.363Z,29.83
2019-02-20T16:27:47.600Z,22.87
2019-02-20T16:30:16.800Z,15.77
2019-02-20T16:32:45.830Z,10.53
2019-02-20T16:35:16.297Z,15.23
2019-02-20T16:37:45.184Z,12.47
2019-02-20T16:40:14.687Z,12.70
2019-02-20T16:42:43.466Z,12.63
2019-02-20T16:45:23.032Z,10.35
2019-02-20T16:47:52.418Z,9.40
2019-02-20T16:50:21.696Z,11.90
2019-02-20T16:52:50.837Z,12.10
2019-02-20T16:55:19.867Z,10.82
2019-02-20T16:57:56.290Z,10.50
2019-02-20T17:00:21.487Z,9.33
2019-02-20T17:02:50.779Z,10.90
2019-02-20T17:05:19.726Z,13.57
2019-02-20T17:07:48.646Z,11.83
2019-02-20T17:10:17.632Z,14.90
2019-02-20T17:12:46.420Z,16.20
2019-02-20T17:15:15.825Z,23.13
2019-02-20T17:17:44.854Z,15.53
2019-02-20T17:20:14.512Z,32.37
2019-02-20T17:22:43.333Z,13.23
2019-02-20T17:25:12.584Z,11.60
2019-02-20T17:27:41.482Z,10.67
2019-02-20T17:30:11.621Z,10.85
2019-02-20T17:32:40.640Z,9.63
2019-02-20T17:35:10.261Z,12.60
2019-02-20T17:37:39.288Z,12.37
2019-02-20T17:40:08.592Z,9.63
2019-02-20T17:42:37.418Z,11.70
2019-02-20T17:45:07.761Z,14.83
2019-02-20T17:47:36.608Z,10.70
2019-02-20T17:50:08.991Z,10.40
2019-02-20T17:52:37.945Z,9.90
2019-02-20T17:55:11.724Z,11.33
2019-02-20T17:57:40.482Z,11.57
2019-02-20T18:00:10.794Z,15.30
2019-02-20T18:02:39.632Z,31.17
2019-02-20T18:05:08.873Z,11.40
2019-02-20T18:07:37.683Z,9.93
2019-02-20T18:10:07.477Z,9.47
2019-02-20T18:12:36.402Z,8.20
2019-02-20T18:15:06.153Z,12.30
2019-02-20T18:17:34.988Z,7.37
2019-02-20T18:20:04.252Z,8.50
2019-02-20T18:22:33.002Z,9.48
2019-02-20T18:25:01.755Z,7.00
2019-02-20T18:27:30.480Z,9.10
2019-02-20T18:29:59.244Z,10.40
2019-02-20T18:32:28.172Z,50.12
2019-02-20T18:34:58.232Z,14.03
2019-02-20T18:37:30.176Z,9.50
2019-02-20T18:39:59.275Z,6.70
2019-02-20T18:42:28.562Z,11.35
2019-02-20T18:44:57.361Z,9.60
2019-02-20T18:47:26.101Z,9.43
2019-02-20T18:49:54.877Z,6.63
2019-02-20T18:52:23.602Z,7.97
2019-02-20T18:54:52.357Z,9.30
2019-02-20T18:57:21.183Z,7.60
2019-02-20T18:59:49.936Z,7.40
2019-02-20T19:02:18.680Z,10.77
2019-02-20T19:04:49.255Z,8.63
2019-02-20T19:07:18.012Z,14.90
2019-02-20T19:09:48.853Z,23.90
2019-02-20T19:12:57.238Z,12.77
2019-02-20T19:16:06.049Z,10.30
2019-02-20T19:19:29.128Z,8.43
2019-02-20T19:22:49.110Z,10.23
2019-02-20T19:26:00.582Z,10.40
2019-02-20T19:28:54.778Z,10.53
2019-02-20T19:31:51.624Z,9.70
2019-02-20T19:34:39.738Z,10.13
2019-02-20T19:37:18.449Z,10.20
2019-02-20T19:40:20.739Z,18.00
2019-02-20T19:43:36.744Z,15.77
2019-02-20T19:46:59.956Z,12.30
2019-02-20T19:50:23.017Z,13.22
2019-02-20T19:53:20.175Z,12.67
2019-02-20T19:56:30.361Z,10.45
2019-02-20T19:59:59.981Z,16.77
2019-02-20T20:03:09.861Z,17.60
2019-02-20T20:05:57.145Z,19.17
2019-02-20T20:09:09.304Z,17.13
2019-02-20T20:12:27.866Z,20.65
2019-02-20T20:15:30.742Z,18.02
2019-02-20T20:18:52.082Z,14.70
2019-02-20T20:21:46.593Z,15.83
2019-02-20T20:24:51.024Z,19.13
2019-02-20T20:27:47.429Z,14.43
2019-02-20T20:30:35.691Z,16.35
2019-02-20T20:33:42.941Z,17.40
2019-02-20T20:36:35.189Z,16.87
2019-02-20T20:40:14.795Z,15.20
2019-02-20T20:43:07.997Z,12.77
2019-02-20T20:45:51.033Z,13.23
2019-02-20T20:48:27.085Z,14.68
2019-02-20T20:51:46.096Z,16.53
2019-02-20T20:54:27.604Z,12.30
2019-02-20T20:57:25.393Z,14.13
2019-02-20T21:00:16.716Z,21.83
2019-02-20T21:02:53.997Z,29.77
2019-02-20T21:06:21.769Z,36.57
2019-02-20T21:08:59.091Z,28.57
2019-02-20T21:11:52.071Z,32.07
2019-02-20T21:15:09.620Z,21.20
2019-02-20T21:18:09.250Z,15.13
2019-02-20T21:21:00.289Z,16.03
2019-02-20T21:23:57.296Z,17.53
2019-02-20T21:26:56.488Z,13.20
2019-02-20T21:29:50.040Z,14.23
2019-02-20T21:32:35.605Z,13.07
2019-02-20T21:35:16.574Z,11.57
2019-02-20T21:38:22.225Z,11.10
2019-02-20T21:40:58.579Z,12.43
2019-02-20T21:43:48.573Z,10.67
2019-02-20T21:46:39.468Z,8.87
2019-02-20T21:49:24.753Z,10.00
2019-02-20T21:53:02.561Z,10.63
2019-02-20T21:56:06.680Z,13.15
2019-02-20T21:58:57.913Z,12.93
2019-02-20T22:01:57.844Z,12.23
2019-02-20T22:04:43.429Z,15.65
2019-02-20T22:08:15.058Z,12.68
2019-02-20T22:11:13.756Z,15.03
2019-02-20T22:14:13.181Z,16.57
2019-02-20T22:17:08.471Z,17.43
2019-02-20T22:20:06.811Z,18.90
2019-02-20T22:22:51.936Z,25.93
2019-02-20T22:25:46.829Z,18.60
2019-02-20T22:28:39.660Z,13.60
2019-02-20T22:31:42.148Z,15.23
2019-02-20T22:34:45.956Z,14.00
2019-02-20T22:37:46.817Z,14.33
2019-02-20T22:40:41.992Z,16.07
2019-02-20T22:43:31.288Z,13.60
2019-02-20T22:46:15.218Z,16.37
2019-02-20T22:49:23.328Z,14.55
2019-02-20T22:52:09.329Z,13.50
2019-02-20T22:55:17.987Z,14.53
2019-02-20T22:58:10.006Z,13.00
2019-02-20T23:01:21.036Z,14.97
2019-02-20T23:04:05.728Z,14.37
2019-02-20T23:06:56.709Z,13.83
2019-02-20T23:09:52.721Z,9.97
2019-02-20T23:13:07.168Z,13.03
2019-02-20T23:15:36.000Z,9.97
2019-02-20T23:18:04.817Z,11.17
2019-02-20T23:20:34.861Z,9.00
2019-02-20T23:23:03.594Z,8.83
2019-02-20T23:25:32.353Z,10.13
2019-02-20T23:28:01.132Z,8.87
2019-02-20T23:30:29.878Z,11.22
2019-02-20T23:33:00.661Z,11.37
2019-02-20T23:35:29.100Z,12.35
2019-02-20T23:37:57.860Z,12.90
2019-02-20T23:40:27.791Z,10.47
2019-02-20T23:42:56.874Z,12.27
2019-02-20T23:45:25.692Z,10.30
2019-02-20T23:47:54.448Z,12.00
2019-02-20T23:50:23.257Z,9.83
2019-02-20T23:52:51.999Z,9.43
2019-02-20T23:55:20.729Z,10.10
2019-02-20T23:57:49.516Z,10.40
